Ginga — JJ4054 — position and weather

sailwx.info

Track history (hours):
 
Tides and Currents Weather Stations Pressure Air Temp Water Temp Dewpoint Dewpoint Depression Visibility Wind Speed Wind Dir Waves Ship Positions

Ginga

Last reported at 2016-May-23 20:33 UTC. Time now 2016-May-24 11:53 UTC.
Position N 34°39' E 135°09'.

Length 28 m; draft 1.6 m.

Type: Other ship. MMSI: 431301704.

Date/timePositionNaut miles runAvg speedWind from/ knotsBaromVisibWave heightAir tempDewpointWater temp
2016-May-23 20:33N 34°39' E 135°09'9 9.0
2016-May-23 19:34N 34°38' E 134°59'7 7.0
2016-May-23 18:33N 34°35' E 135°07'5 5.0
2016-May-23 17:33N 34°39' E 135°09'1 0.0
2016-May-22 08:33N 34°39' E 135°10'2 2.2
2016-May-22 07:33N 34°41' E 135°11'2 0.3
2016-May-22 00:03N 34°39' E 135°09'2 3.1
2016-May-21 23:33N 34°39' E 135°11'1 1.2
2016-May-21 22:33N 34°39' E 135°10'1 0.0
2016-May-21 06:34N 34°39' E 135°09'1514.8
2016-May-21 05:33N 34°25' E 135°03'6 6.0
2016-May-21 04:33N 34°20' E 134°59'1413.6
2016-May-21 03:34N 34°29' E 135°11'1010.4
2016-May-21 02:33N 34°33' E 135°23'0 0.1
2016-May-21 01:33N 34°34' E 135°23'1212.2
2016-May-21 00:33N 34°39' E 135°09'0 0.0
2016-May-20 20:32N 34°39' E 135°09'1010.7
2016-May-20 19:33N 34°37' E 134°57'9 8.8
2016-May-20 18:33N 34°35' E 135°07'4 4.4
2016-May-20 17:33N 34°39' E 135°09'0 0.0
2016-May-20 04:16N 34°39' E 135°09'1014.0
2016-May-20 03:33N 34°35' E 135°20'2 1.5
2016-May-20 02:24N 34°33' E 135°19'910.5
2016-May-20 01:33N 34°29' E 135°10'1212.3
2016-May-20 00:32N 34°19' E 134°60'5 2.8
2016-May-19 22:33N 34°25' E 135°01'1515.3
2016-May-19 21:34N 34°38' E 135°10'1 0.0
2016-May-19 01:13N 34°39' E 135°09'6 9.2
2016-May-19 00:32N 34°36' E 135°03'5 5.0
2016-May-18 23:29N 34°35' E 134°57'7 7.8
2016-May-18 22:33N 34°36' E 135°05'5 4.6
2016-May-18 21:33N 34°39' E 135°09'0 0.0
2016-May-17 07:17N 34°39' E 135°09'7 8.7
2016-May-17 06:26N 34°37' E 135°01'1 1.4
2016-May-17 05:30N 34°38' E 135°02'1 0.1
2016-May-16 22:21N 34°38' E 135°03'2 2.1
2016-May-16 21:30N 34°37' E 135°01'8 8.6
2016-May-16 20:33N 34°33' E 135°09'6 5.8
2016-May-16 19:34N 34°39' E 135°09'2 0.1
2016-May-16 00:33N 34°40' E 135°11'10 9.2
2016-May-15 23:31N 34°38' E 134°59'5 4.8
2016-May-15 22:33N 34°36' E 135°04'2 2.3
2016-May-15 21:32N 34°36' E 135°02'4 2.9
2016-May-15 20:19N 34°37' E 134°57'7 9.7
2016-May-15 19:33N 34°36' E 135°06'4 4.4
2016-May-15 18:33N 34°39' E 135°09'0 0.0
2016-May-14 17:34N 34°39' E 135°10'9 9.0
2016-May-14 16:34N 34°38' E 134°59'9 8.8
2016-May-14 15:33N 34°38' E 135°10'  
Track history (hours):
 
Tides and Currents Weather Stations Pressure Air Temp Water Temp Dewpoint Dewpoint Depression Visibility Wind Speed Wind Dir Waves Ship Positions

Ginga

Last reported at 2016-May-23 20:33 UTC. Time now 2016-May-24 11:53 UTC.
Position N 34°39' E 135°09'.

Length 28 m; draft 1.6 m.

Type: Other ship. MMSI: 431301704.

Date/timePositionNaut miles runAvg speedWind from/ knotsBaromVisibWave heightAir tempDewpointWater temp
2016-May-23 20:33N 34°39' E 135°09'9 9.0
2016-May-23 19:34N 34°38' E 134°59'7 7.0
2016-May-23 18:33N 34°35' E 135°07'5 5.0
2016-May-23 17:33N 34°39' E 135°09'1 0.0
2016-May-22 08:33N 34°39' E 135°10'2 2.2
2016-May-22 07:33N 34°41' E 135°11'2 0.3
2016-May-22 00:03N 34°39' E 135°09'2 3.1
2016-May-21 23:33N 34°39' E 135°11'1 1.2
2016-May-21 22:33N 34°39' E 135°10'1 0.0
2016-May-21 06:34N 34°39' E 135°09'1514.8
2016-May-21 05:33N 34°25' E 135°03'6 6.0
2016-May-21 04:33N 34°20' E 134°59'1413.6
2016-May-21 03:34N 34°29' E 135°11'1010.4
2016-May-21 02:33N 34°33' E 135°23'0 0.1
2016-May-21 01:33N 34°34' E 135°23'1212.2
2016-May-21 00:33N 34°39' E 135°09'0 0.0
2016-May-20 20:32N 34°39' E 135°09'1010.7
2016-May-20 19:33N 34°37' E 134°57'9 8.8
2016-May-20 18:33N 34°35' E 135°07'4 4.4
2016-May-20 17:33N 34°39' E 135°09'0 0.0
2016-May-20 04:16N 34°39' E 135°09'1014.0
2016-May-20 03:33N 34°35' E 135°20'2 1.5
2016-May-20 02:24N 34°33' E 135°19'910.5
2016-May-20 01:33N 34°29' E 135°10'1212.3
2016-May-20 00:32N 34°19' E 134°60'5 2.8
2016-May-19 22:33N 34°25' E 135°01'1515.3
2016-May-19 21:34N 34°38' E 135°10'1 0.0
2016-May-19 01:13N 34°39' E 135°09'6 9.2
2016-May-19 00:32N 34°36' E 135°03'5 5.0
2016-May-18 23:29N 34°35' E 134°57'7 7.8
2016-May-18 22:33N 34°36' E 135°05'5 4.6
2016-May-18 21:33N 34°39' E 135°09'0 0.0
2016-May-17 07:17N 34°39' E 135°09'7 8.7
2016-May-17 06:26N 34°37' E 135°01'1 1.4
2016-May-17 05:30N 34°38' E 135°02'1 0.1
2016-May-16 22:21N 34°38' E 135°03'2 2.1
2016-May-16 21:30N 34°37' E 135°01'8 8.6
2016-May-16 20:33N 34°33' E 135°09'6 5.8
2016-May-16 19:34N 34°39' E 135°09'2 0.1
2016-May-16 00:33N 34°40' E 135°11'10 9.2
2016-May-15 23:31N 34°38' E 134°59'5 4.8
2016-May-15 22:33N 34°36' E 135°04'2 2.3
2016-May-15 21:32N 34°36' E 135°02'4 2.9
2016-May-15 20:19N 34°37' E 134°57'7 9.7
2016-May-15 19:33N 34°36' E 135°06'4 4.4
2016-May-15 18:33N 34°39' E 135°09'0 0.0
2016-May-14 17:34N 34°39' E 135°10'9 9.0
2016-May-14 16:34N 34°38' E 134°59'9 8.8
2016-May-14 15:33N 34°38' E 135°10'  

Dump ship's entire track history